Ana Sayfa
METAR-TAF:

METAR-TAF

Havaalanları :

Perryton Ochiltree County Airport

Perryton, Teksas, Amerika Birleşik Devletleri

Enlem: 36-24N, Boylam: 100-44W, yükseklik: 890 m

Güncel hava durumu gözlemi

Rapor saat 16:35 UTC de 16 dakika önce yapıldı.
Rüzgar güney/güneybatıdan 14 kt ve 21 kt'a kadar ani rüzgarlar
Sıcaklık 29°C
Nem 35%
Basınç 1020 hPa
Görüş mesafesi: 16.1 km
Açık gökyüzü

METAR: KPYX 161635Z AUTO 21014G21KT 10SM CLR 29/12 A3012 RMK AO2 T02920122

Saat: 11:51 (16:51 UTC)


TAF: eksik

4.000'den fazla havaalanı için hava durumu gözlemleri ve tahminleri (METAR ve TAF raporları).

Kullanılabilir istasyonlar harita üzerinde sarı ve kırmızı noktalarla gösterilir.

İstasyonun adını görmek için fareyi noktanın üzerinde gezdirin.

Sonrasında hava gözlem ve tahminlerini görmek için tıklayın.

Haritayı değiştirmek için: yaklaştırmak için siyah artı işaretli yeşil düğmeye ve uzaklaştırmak için de eksi işaretli düğmeye hızla tıklayın; bitişik haritalar için yeşil okları kullanın.


METAR-TAF: